• Join FlightAware (Why Join?)
  • Login
  • US Flag 
03:00AM EDT


 

Airport Tracker/Info


-or-


 

Live Flight TrackerFlight Track Log ✈ LYM3612 ✈ 08-May-2013 ✈ KDEN - KCPR

Flight Track Log - Related Links

Times and Time Zones

All times are in EDT time to prevent confusion due to time zone crossing. See the LYM3612 flight status page for this flight to view local times or setup timezone preferences in your user account.

Time Position Orientation Groundspeed Altitude Reporting Facility
EDT Latitude Longitude Course Direction KTS MPH feet Rate Location/Type
08:51AM 39.8500 -104.7500 288° West 183 211 8,000  Level Denver TRACON
08:52AM 39.8667 -104.8167 288° West 191 220 9,300 1,260 Climbing Denver TRACON
08:53AM 39.9042 -104.8369 337° Northwest 190 219 10,400 1,260 Climbing Denver Center
08:54AM 39.9575 -104.8392 358° North 191 220 11,700 1,200 Climbing Denver Center
08:55AM 40.0122 -104.8417 358° North 196 226 12,900 1,140 Climbing Denver Center
08:56AM 40.0717 -104.8464 357° North 199 229 14,100 1,080 Climbing Denver Center
08:57AM 40.1294 -104.8519 356° North 206 237 15,100 960 Climbing Denver Center
08:58AM 40.1883 -104.8631 352° North 212 244 16,100 900 Climbing Denver Center
08:59AM 40.2475 -104.8817 346° North 219 252 17,000 780 Climbing Denver Center
09:00AM 40.2969 -104.9022 342° North 224 258 17,700 600 Climbing Denver Center
09:01AM 40.3681 -104.9381 339° North 224 258 18,300 540 Climbing Denver Center
09:02AM 40.4281 -104.9633 342° North 224 258 18,900 540 Climbing Denver Center
09:03AM 40.4906 -104.9833 346° North 229 264 19,500 540 Climbing Denver Center
09:04AM 40.5503 -105.0092 342° North 226 260 20,000 240 Climbing Denver Center
09:05AM 40.6214 -105.0261 350° North 242 278 20,000  Level Denver Center
09:06AM 40.6900 -105.0503 345° North 256 295 20,100  Climbing Denver Center
09:07AM 40.7644 -105.0653 351° North 259 298 20,000 -60 Descending Denver Center
09:08AM 40.8328 -105.1078 335° Northwest 267 307 20,000  Level Denver Center
09:09AM 40.9028 -105.1489 336° Northwest 272 313 20,000 -120 Level Denver Center
09:10AM 40.9714 -105.2008 330° Northwest 279 321 19,800  Descending Denver Center
09:11AM 41.0439 -105.2436 336° Northwest 277 319 20,000 60 Climbing Denver Center
09:12AM 41.1117 -105.2758 340° North 274 315 20,000  Level Denver Center
09:13AM 41.1769 -105.3136 336° Northwest 268 308 20,000  Level Denver Center
09:14AM 41.2533 -105.3592 336° Northwest 269 310 20,000  Level Denver Center
09:15AM 41.3178 -105.3967 336° Northwest 267 307 20,000  Level Denver Center
09:16AM 41.3947 -105.4394 337° Northwest 269 310 20,000  Level Denver Center
09:17AM 41.4581 -105.4831 333° Northwest 268 308 20,000  Level Denver Center
09:18AM 41.5414 -105.5403 333° Northwest 265 305 20,000  Level Denver Center
09:19AM 41.6036 -105.5822 333° Northwest 262 302 20,000  Level Denver Center
09:20AM 41.6686 -105.6242 334° Northwest 268 308 20,000  Level Denver Center
09:21AM 41.7414 -105.6769 332° Northwest 268 308 20,000 60 Level Denver Center
09:22AM 41.8056 -105.7181 334° Northwest 267 307 20,200 -60 Climbing Denver Center
09:23AM 41.8703 -105.7603 334° Northwest 270 311 19,900 -480 Descending Denver Center
09:24AM 41.9489 -105.8053 337° Northwest 272 313 19,300 -600 Descending Denver Center
09:25AM 42.0181 -105.8489 335° Northwest 278 320 18,800 -960 Descending Denver Center
09:26AM 42.0906 -105.8917 336° Northwest 285 328 17,400 -1,200 Descending Denver Center
09:27AM 42.1814 -105.9450 336° Northwest 300 345 16,400 -840 Descending Denver Center
09:28AM 42.2581 -105.9997 332° Northwest 313 360 15,700 -660 Descending Denver Center
09:29AM 42.3300 -106.0494 333° Northwest 310 357 15,100 -360 Descending Denver Center
09:30AM 42.3894 -106.0878 335° Northwest 304 350 15,000 -60 Descending Denver Center
09:31AM 42.4831 -106.1519 333° Northwest 298 343 15,000  Level Denver Center
09:32AM 42.5497 -106.2022 331° Northwest 293 337 15,000 -540 Level Denver Center
09:33AM 42.6306 -106.2611 332° Northwest 293 337 14,000 -1,320 Descending Denver Center
09:34AM 42.7061 -106.2931 343° North 310 357 12,400 -1,860 Descending Denver Center
09:35AM 42.7775 -106.3375 335° Northwest 297 342 10,300 -2,520 Descending Denver Center
09:37AM 42.8606 -106.3808 339° North 289 333 7,300 -1,800 Descending Denver Center
09:38AM 42.9269 -106.4111 342° North 281 323 6,700 -300 Descending Denver Center
09:39AM 42.9881 -106.4389 342° North 276 318 6,700  Level Denver Center
09:41AM 42.9080 -106.4644 193° South  Level Estimated
09:48AM 42.9080 -106.4644 90° East  Level Estimated